Погода Мае-Сотна неделю

Вьентьян, Таиланд

28 февраля-05 марта
  • 28февраля
    Сегодня
    +23°
    +36°
    Небольшая облачность и лёгкий дождик
    ВремяПогодаТемператураВлажностьДавлениеВетер, м/сВероятность осадков
    01:00Практически безоблачно+28°C82 %741 мм0.4 м/с2 %
    04:00Практически безоблачно+27°C83 %740 мм0.3 м/с5 %
    07:00Практически безоблачно+25°C85 %741 мм0.3 м/с3 %
    10:00Небольшая облачность+29°C58 %743 мм0.2 м/с5 %
    13:00Небольшая облачность и лёгкий дождик+34°C42 %741 мм1.8 м/с41 %
    16:00Ясно и безоблачно+35°C39 %739 мм2.7 м/с29 %
    19:00Ясно и безоблачно+32°C54 %739 мм1.9 м/с8 %
    22:00Ясно и безоблачно+28°C68 %741 мм1.0 м/с2 %
  • 29февраля
    Четверг
    +21°
    +37°
    Ясно и безоблачно
    ВремяПогодаТемператураВлажностьДавлениеВетер, м/сВероятность осадков
    01:00Ясно и безоблачно+27°C78 %741 мм0.5 м/с2 %
    04:00Ясно и безоблачно+24°C84 %740 мм0.4 м/с2 %
    07:00Ясно и безоблачно+23°C88 %741 мм0.3 м/с2 %
    10:00Ясно и безоблачно+29°C55 %743 мм0.1 м/с2 %
    13:00Ясно и безоблачно+35°C31 %741 мм1.9 м/с6 %
    16:00Ясно и безоблачно+36°C25 %739 мм3.6 м/с5 %
    19:00Ясно и безоблачно+32°C42 %740 мм2.1 м/с1 %
    22:00Ясно и безоблачно+28°C68 %742 мм0.9 м/с2 %
  • 01марта
    Пятница
    +21°
    +37°
    Практически безоблачно
    ВремяПогодаТемператураВлажностьДавлениеВетер, м/сВероятность осадков
    01:00Ясно и безоблачно+26°C77 %742 мм0.6 м/с2 %
    04:00Ясно и безоблачно+23°C85 %741 мм0.2 м/с2 %
    07:00Ясно и безоблачно+21°C86 %742 мм0.3 м/с2 %
    10:00Ясно и безоблачно+28°C52 %744 мм0.1 м/с2 %
    13:00Практически безоблачно+35°C25 %741 мм1.9 м/с2 %
    16:00Ясно и безоблачно+36°C20 %739 мм3.7 м/с2 %
    19:00Небольшая облачность+32°C42 %740 мм2.1 м/с2 %
    22:00Практически безоблачно+28°C64 %742 мм0.9 м/с2 %
  • 02марта
    Суббота
    +21°
    +37°
    Ясно и безоблачно
    ВремяПогодаТемператураВлажностьДавлениеВетер, м/сВероятность осадков
    01:00Ясно и безоблачно+26°C76 %741 мм0.5 м/с2 %
    04:00Ясно и безоблачно+23°C80 %740 мм0.4 м/с2 %
    07:00Ясно и безоблачно+22°C78 %742 мм0.3 м/с2 %
    10:00Ясно и безоблачно+28°C45 %743 мм0.0 м/с2 %
    13:00Ясно и безоблачно+35°C24 %741 мм1.7 м/с2 %
    16:00Ясно и безоблачно+37°C21 %739 мм3.7 м/с2 %
    19:00Ясно и безоблачно+32°C40 %740 мм2.2 м/с2 %
    22:00Ясно и безоблачно+28°C60 %741 мм1.0 м/с2 %
  • 03марта
    Воскресенье
    +19°
    +37°
    Ясно и безоблачно
    ВремяПогодаТемператураВлажностьДавлениеВетер, м/сВероятность осадков
    01:00Ясно и безоблачно+25°C73 %741 мм0.5 м/с2 %
    04:00Ясно и безоблачно+23°C77 %740 мм0.3 м/с2 %
    07:00Ясно и безоблачно+22°C82 %742 мм0.3 м/с2 %
    10:00Ясно и безоблачно+28°C50 %743 мм0.3 м/с2 %
    13:00Ясно и безоблачно+34°C25 %741 мм2.4 м/с3 %
    16:00Небольшая облачность+36°C22 %739 мм4.1 м/с2 %
    19:00Практически безоблачно+31°C41 %739 мм2.1 м/с2 %
    22:00Облачно с прояснениями+27°C62 %741 мм0.9 м/с2 %
Мы используем cookies
Соглашаюсь